Tuesday, January 23, 2018, 6:23 AM CST
Back to Local

KEHA, Elkhart, Elkhart-morton County Airport

Location: Elkhart, KS, United States Lat: 37
Local Time: 6:23 AM CST (12:23 GMT) Lon: -101.883
Time Zone: US/Central Elev: 3622 ft

Show me the last for .
Show Decoded

2018-01-23 05:35 METAR KEHA 231135Z AUTO 28009KT 10SM CLR M05/M11 A3018 RMK AO2 T10501113 =
2018-01-23 05:15 METAR KEHA 231115Z AUTO 27009KT 10SM CLR M05/M11 A3018 RMK AO2 T10521113 =
2018-01-23 04:55 METAR KEHA 231055Z AUTO 28009KT 10SM CLR M05/M11 A3017 RMK AO2 T10481115 =
2018-01-23 04:35 METAR KEHA 231035Z AUTO 29007KT 10SM CLR M04/M11 A3017 RMK AO2 T10451114 =
2018-01-23 04:15 METAR KEHA 231015Z AUTO 29007KT 10SM CLR M04/M11 A3017 RMK AO2 T10371112 =
2018-01-23 03:55 METAR KEHA 230955Z AUTO 30007KT 10SM CLR M04/M11 A3017 RMK AO2 T10371112 =
2018-01-23 03:35 METAR KEHA 230935Z AUTO 30007KT 10SM CLR M03/M11 A3017 RMK AO2 T10331110 =
2018-01-23 03:15 METAR KEHA 230915Z AUTO 27009KT 10SM CLR M04/M11 A3017 RMK AO2 T10431111 =
2018-01-23 02:55 METAR KEHA 230855Z AUTO 30007KT 10SM CLR M03/M11 A3016 RMK AO2 T10331110 =
2018-01-23 02:35 METAR KEHA 230835Z AUTO 33009KT 10SM CLR M03/M10 A3015 RMK AO2 T10281105 =
2018-01-23 02:15 METAR KEHA 230815Z AUTO 33009KT 10SM CLR M03/M11 A3015 RMK AO2 T10321109 =
2018-01-23 01:55 METAR KEHA 230755Z AUTO 32008KT 10SM CLR M02/M10 A3016 RMK AO2 T10221105 =
2018-01-23 01:35 METAR KEHA 230735Z AUTO 32010KT 10SM CLR M02/M10 A3016 RMK AO2 T10181105 =
2018-01-23 01:15 METAR KEHA 230715Z AUTO 30008KT 10SM CLR M03/M10 A3016 RMK AO2 T10301105 =
2018-01-23 00:55 METAR KEHA 230655Z AUTO 29007KT 10SM CLR M03/M10 A3016 RMK AO2 T10291105 PNO =
2018-01-23 00:35 METAR KEHA 230635Z AUTO 30008KT 10SM CLR M02/M10 A3016 RMK AO2 T10231102 =
2018-01-23 00:15 METAR KEHA 230615Z AUTO 29007KT 10SM CLR M02/M10 A3016 RMK AO2 T10201100 =
2018-01-22 23:55 METAR KEHA 230555Z AUTO 30007KT 10SM CLR M02/M10 A3016 RMK AO2 T10181098 10045
                 21018 400831018 =
2018-01-22 23:35 METAR KEHA 230535Z AUTO 29008KT 10SM CLR M01/M09 A3016 RMK AO2 T10091095 =
2018-01-22 23:15 METAR KEHA 230515Z AUTO 30006KT 10SM CLR M01/M09 A3015 RMK AO2 T10091095 =
2018-01-22 22:55 METAR KEHA 230455Z AUTO 29009KT 10SM CLR 00/M09 A3016 RMK AO2 T00001095 =
2018-01-22 22:35 METAR KEHA 230435Z AUTO 28007KT 10SM CLR M01/M10 A3015 RMK AO2 T10101097 =
2018-01-22 22:15 METAR KEHA 230415Z AUTO 27007KT 10SM CLR M01/M10 A3015 RMK AO2 T10061100 =
2018-01-22 21:55 METAR KEHA 230355Z AUTO 28007KT 10SM CLR M01/M10 A3014 RMK AO2 T10101100 =
2018-01-22 21:35 METAR KEHA 230335Z AUTO 27006KT 10SM CLR 00/M10 A3013 RMK AO2 T10051100 =
2018-01-22 21:15 METAR KEHA 230315Z AUTO 28006KT 10SM CLR 00/M10 A3013 RMK AO2 T10011102 =
2018-01-22 20:55 METAR KEHA 230255Z AUTO 27005KT 10SM CLR 00/M10 A3012 RMK AO2 T00001103 =
2018-01-22 20:35 METAR KEHA 230235Z AUTO 28005KT 10SM CLR 01/M10 A3012 RMK AO2 T00091100 PNO =
2018-01-22 20:15 METAR KEHA 230215Z AUTO 31006KT 10SM CLR 01/M10 A3012 RMK AO2 T00111100 =
2018-01-22 19:55 METAR KEHA 230155Z AUTO 31007KT 10SM CLR 02/M10 A3012 RMK AO2 T00151100 =
2018-01-22 19:35 METAR KEHA 230135Z AUTO 32006KT 10SM CLR 02/M09 A3011 RMK AO2 T00181095 =
2018-01-22 19:15 METAR KEHA 230115Z AUTO 32005KT 10SM CLR 02/M10 A3011 RMK AO2 T00191100 =
2018-01-22 18:55 METAR KEHA 230055Z AUTO 31006KT 10SM CLR 02/M10 A3011 RMK AO2 T00231102 =
2018-01-22 18:35 METAR KEHA 230035Z AUTO 31006KT 10SM CLR 03/M11 A3010 RMK AO2 T00261106 =
2018-01-22 18:15 METAR KEHA 230015Z AUTO 31006KT 10SM CLR 04/M10 A3010 RMK AO2 T00351105 =
2018-01-22 17:55 METAR KEHA 222355Z AUTO 32012G17KT 10SM CLR 05/M10 A3008 RMK AO2 T00491102 10083
                 20049 =
2018-01-22 17:35 METAR KEHA 222335Z AUTO 34012KT 10SM CLR 06/M10 A3007 RMK AO2 T00581102 =
2018-01-22 17:15 METAR KEHA 222315Z AUTO 34014G19KT 10SM CLR 07/M10 A3006 RMK AO2 T00661102 =
2018-01-22 16:55 METAR KEHA 222255Z AUTO 33016G20KT 10SM CLR 07/M10 A3006 RMK AO2 T00711098 =
2018-01-22 16:35 METAR KEHA 222235Z AUTO 32016G20KT 10SM CLR 08/M09 A3005 RMK AO2 T00751090 =
2018-01-22 16:15 METAR KEHA 222215Z AUTO 32013G23KT 10SM CLR 08/M09 A3004 RMK AO2 T00771092 =
2018-01-22 15:55 METAR KEHA 222155Z AUTO 33017G22KT 10SM CLR 08/M09 A3003 RMK AO2 T00801093 =
2018-01-22 15:35 METAR KEHA 222135Z AUTO 33019G24KT 10SM CLR 08/M09 A3002 RMK AO2 T00821092 =
2018-01-22 15:15 METAR KEHA 222115Z AUTO 34022G29KT 10SM CLR 08/M09 A3001 RMK AO2 T00811092 =
2018-01-22 14:55 METAR KEHA 222055Z AUTO 31019G26KT 10SM CLR 08/M09 A3001 RMK AO2 T00801086 =
2018-01-22 14:35 METAR KEHA 222035Z AUTO 33022G29KT 10SM CLR 08/M08 A3000 RMK AO2 T00801085 =
2018-01-22 14:15 METAR KEHA 222015Z AUTO 33020G28KT 10SM CLR 08/M08 A2999 RMK AO2 T00791082 =
2018-01-22 13:15 METAR KEHA 221915Z AUTO 33024G29KT 10SM CLR 07/M07 A3000 RMK AO2 T00671075 =
2018-01-22 12:55 METAR KEHA 221855Z AUTO 32020G32KT 10SM CLR 07/M07 A3001 RMK AO2 T00671073 =
2018-01-22 12:35 METAR KEHA 221835Z AUTO 32023G34KT 10SM CLR 06/M07 A3002 RMK AO2 T00631072 =
2018-01-22 12:15 METAR KEHA 221815Z AUTO 33024G34KT 10SM CLR 06/M07 A3002 RMK AO2 T00611071 =
2018-01-22 11:55 METAR KEHA 221755Z AUTO 33027G35KT 10SM CLR 06/M07 A3002 RMK AO2 T00561070 10056
                 21010 =
2018-01-22 11:35 METAR KEHA 221735Z AUTO 33026G35KT 10SM CLR 05/M07 A3001 RMK AO2 T00531068 =
2018-01-22 11:15 METAR KEHA 221715Z AUTO 32023G31KT 10SM CLR 05/M07 A3002 RMK AO2 T00461067 =
2018-01-22 10:55 METAR KEHA 221655Z AUTO 32022G32KT 10SM CLR 04/M06 A3002 RMK AO2 T00441064 =
2018-01-22 10:35 METAR KEHA 221635Z AUTO 32024G36KT 10SM CLR 04/M07 A3000 RMK AO2 T00401066 PNO =
2018-01-22 10:15 METAR KEHA 221615Z AUTO 32025G33KT 10SM CLR 03/M06 A2999 RMK AO2 T00331060 =
2018-01-22 09:55 METAR KEHA 221555Z AUTO 32024G31KT 10SM CLR 03/M06 A2998 RMK AO2 T00251060 =
2018-01-22 09:35 METAR KEHA 221535Z AUTO 32020G28KT 10SM CLR 02/M06 A2998 RMK AO2 T00191058 =
2018-01-22 09:15 METAR KEHA 221515Z AUTO 32017G25KT 10SM CLR 01/M06 A2997 RMK AO2 T00111059 =
2018-01-22 08:55 METAR KEHA 221455Z AUTO 32018G25KT 10SM CLR 00/M06 A2996 RMK AO2 T00041058 =
2018-01-22 08:35 METAR KEHA 221435Z AUTO 32017G25KT 10SM CLR 00/M06 A2995 RMK AO2 T00001056 =
2018-01-22 08:15 METAR KEHA 221415Z AUTO 32019G25KT 10SM CLR 00/M05 A2994 RMK AO2 T10011054 =
2018-01-22 07:55 METAR KEHA 221355Z AUTO 32021G26KT 10SM CLR 00/M05 A2994 RMK AO2 T10021050 =
2018-01-22 07:35 METAR KEHA 221335Z AUTO 32019G28KT 10SM CLR 00/M05 A2993 RMK AO2 T10051048 =
2018-01-22 07:15 METAR KEHA 221315Z AUTO 32019G25KT 10SM CLR M01/M05 A2992 RMK AO2 T10071048 =
2018-01-22 06:55 METAR KEHA 221255Z AUTO 32019G28KT 10SM CLR M01/M05 A2991 RMK AO2 T10081047 =
2018-01-22 06:35 METAR KEHA 221235Z AUTO 31019G24KT 10SM CLR M01/M04 A2990 RMK AO2 T10101045 =

Support USWX by starting your Amazon purchase here.